Time;durP1;ratioP1;P1;durP2;ratioP2;P2;SDS_P1;SDS_P2;PMS_P1;PMS_P2;Temp;Humidity;BMP_temperature;BMP_pressure;BME280_temperature;BME280_humidity;BME280_pressure;Samples;Min_cycle;Max_cycle;Signal;HPM_P1;HPM_P2
2020/12/13 00:00:37;;;;;;;8.47;7.77;;;6.30;99.90;;;;;;5041847;28;20705;-68
2020/12/13 00:03:03;;;;;;;8.47;7.67;;;6.30;99.90;;;;;;5046193;28;20179;-67
2020/12/13 00:05:29;;;;;;;7.93;7.23;;;6.30;99.90;;;;;;5038964;28;20191;-67
2020/12/13 00:07:55;;;;;;;7.97;7.17;;;6.30;99.90;;;;;;5042283;28;20264;-68
2020/12/13 00:10:21;;;;;;;8.23;7.53;;;6.30;99.90;;;;;;5048235;28;20287;-68
2020/12/13 00:12:47;;;;;;;8.53;7.73;;;6.30;99.90;;;;;;5045068;28;20209;-68
2020/12/13 00:15:13;;;;;;;7.60;6.90;;;6.30;99.90;;;;;;5031543;28;20643;-68
2020/12/13 00:17:39;;;;;;;7.60;7.00;;;6.30;99.90;;;;;;5045992;28;20194;-68
2020/12/13 00:20:06;;;;;;;7.70;7.00;;;6.30;99.90;;;;;;5047174;28;20296;-68
2020/12/13 00:22:31;;;;;;;7.70;7.00;;;6.30;99.90;;;;;;5040040;28;20195;-68
2020/12/13 00:24:57;;;;;;;7.50;6.80;;;6.20;99.90;;;;;;5043267;28;20193;-67
2020/12/13 00:27:22;;;;;;;7.97;7.17;;;6.20;99.90;;;;;;5038516;28;20185;-67
2020/12/13 00:29:48;;;;;;;8.27;7.57;;;6.20;99.90;;;;;;5049263;28;20211;-67
2020/12/13 00:32:14;;;;;;;7.67;6.97;;;6.20;99.90;;;;;;5037506;28;20673;-67
2020/12/13 00:34:40;;;;;;;7.13;6.50;;;6.20;99.90;;;;;;5048878;28;20654;-68
2020/12/13 00:37:05;;;;;;;6.93;6.33;;;6.20;99.90;;;;;;5037007;28;20180;-67
2020/12/13 00:39:34;;;;;;;7.30;6.70;;;6.20;99.90;;;;;;5045021;28;20281;-67
2020/12/13 00:41:59;;;;;;;7.23;6.63;;;6.20;99.90;;;;;;5017464;28;20198;-67
2020/12/13 00:44:25;;;;;;;6.37;5.87;;;6.20;99.90;;;;;;5041079;28;20232;-67
2020/12/13 00:46:50;;;;;;;7.27;6.63;;;6.20;99.90;;;;;;5038431;28;20187;-67
2020/12/13 00:49:16;;;;;;;7.30;6.70;;;6.20;99.90;;;;;;5044474;28;20215;-67
2020/12/13 00:51:42;;;;;;;7.30;6.60;;;6.20;99.90;;;;;;5039879;28;20206;-67
2020/12/13 00:54:08;;;;;;;7.80;7.03;;;6.20;99.90;;;;;;5039083;28;20299;-67
2020/12/13 00:56:33;;;;;;;8.10;7.30;;;6.20;99.90;;;;;;5040817;28;20667;-67
2020/12/13 00:58:59;;;;;;;7.00;6.40;;;6.20;99.90;;;;;;5041076;28;20180;-67
2020/12/13 01:01:24;;;;;;;7.97;7.27;;;6.20;99.90;;;;;;5039888;28;20218;-67
2020/12/13 01:03:50;;;;;;;7.93;7.13;;;6.20;99.90;;;;;;5042585;28;20184;-67
2020/12/13 01:06:27;;;;;;;7.97;7.17;;;6.20;99.90;;;;;;5036402;28;20188;-67
2020/12/13 01:08:53;;;;;;;9.40;7.17;;;6.20;99.90;;;;;;5043479;28;20241;-67
2020/12/13 01:11:26;;;;;;;8.13;7.37;;;6.20;99.90;;;;;;5041514;28;20239;-68
2020/12/13 01:13:53;;;;;;;8.00;7.30;;;6.20;99.90;;;;;;5037044;28;20577;-67
2020/12/13 01:16:19;;;;;;;8.10;7.23;;;6.20;99.90;;;;;;5034615;28;20181;-67
2020/12/13 01:18:45;;;;;;;8.07;7.37;;;6.20;99.90;;;;;;5039289;28;20190;-67
2020/12/13 01:21:30;;;;;;;7.60;6.90;;;6.20;99.90;;;;;;5040890;28;20216;-68
2020/12/13 01:23:56;;;;;;;7.77;7.07;;;6.20;99.90;;;;;;5039636;28;20189;-67
2020/12/13 01:26:24;;;;;;;7.70;7.03;;;6.20;99.90;;;;;;5046641;28;20206;-67
2020/12/13 01:28:50;;;;;;;7.57;6.87;;;6.20;99.90;;;;;;5049450;28;20185;-67
2020/12/13 01:31:17;;;;;;;7.70;7.00;;;6.20;99.90;;;;;;5036527;28;20288;-67
2020/12/13 01:33:44;;;;;;;7.20;6.60;;;6.20;99.90;;;;;;5036066;28;20203;-67
2020/12/13 01:36:11;;;;;;;8.30;6.63;;;6.10;99.90;;;;;;5036880;28;20188;-66
2020/12/13 01:38:37;;;;;;;7.03;6.43;;;6.10;99.90;;;;;;5036612;28;20192;-68
2020/12/13 01:41:03;;;;;;;8.23;7.47;;;6.10;99.90;;;;;;5045189;28;20691;-68
2020/12/13 01:43:28;;;;;;;7.90;7.10;;;6.10;99.90;;;;;;5042463;28;20230;-68
2020/12/13 01:45:54;;;;;;;7.70;7.10;;;6.10;99.90;;;;;;5042983;28;20187;-68
2020/12/13 01:48:20;;;;;;;9.40;7.40;;;6.10;99.90;;;;;;5040890;28;20187;-68
2020/12/13 01:53:14;;;;;;;7.93;7.23;;;5.90;99.90;;;;;;5040794;28;20190;-67
2020/12/13 01:55:46;;;;;;;8.50;7.70;;;5.90;99.90;;;;;;5040160;28;20194;-67
2020/12/13 01:58:17;;;;;;;7.43;6.80;;;5.90;99.90;;;;;;5041931;28;20339;-67
2020/12/13 02:00:48;;;;;;;8.20;7.50;;;5.90;99.90;;;;;;5044870;28;20237;-67
2020/12/13 02:03:20;;;;;;;7.47;6.87;;;5.90;99.90;;;;;;5045403;28;20178;-67
2020/12/13 02:05:51;;;;;;;7.87;7.17;;;5.90;99.90;;;;;;5040287;28;20195;-67
2020/12/13 02:08:22;;;;;;;8.13;7.40;;;6.00;99.90;;;;;;5041135;28;20220;-67
2020/12/13 02:10:48;;;;;;;8.23;7.43;;;6.10;99.90;;;;;;5021614;28;20578;-67
2020/12/13 02:13:13;;;;;;;8.03;7.27;;;6.20;99.90;;;;;;5040082;28;20203;-67
2020/12/13 02:15:39;;;;;;;7.83;7.03;;;6.20;99.90;;;;;;5037378;28;20191;-67
2020/12/13 02:18:05;;;;;;;8.37;7.57;;;6.20;99.90;;;;;;5024532;28;20206;-66
2020/12/13 02:20:30;;;;;;;7.73;7.03;;;6.30;99.90;;;;;;5039839;28;20299;-69
2020/12/13 02:22:56;;;;;;;8.00;7.30;;;6.30;99.90;;;;;;5047045;28;20182;-67
2020/12/13 02:25:23;;;;;;;7.80;7.10;;;6.30;99.90;;;;;;5039083;28;20225;-67
2020/12/13 02:27:49;;;;;;;7.70;7.00;;;6.30;99.90;;;;;;5046908;28;20280;-68
2020/12/13 02:30:15;;;;;;;7.23;6.63;;;6.30;99.90;;;;;;5039411;28;20243;-69
2020/12/13 02:32:41;;;;;;;8.13;7.33;;;6.30;99.90;;;;;;5049010;28;20212;-67
2020/12/13 02:35:08;;;;;;;7.63;7.03;;;6.30;99.90;;;;;;5045485;28;20194;-68
2020/12/13 02:37:34;;;;;;;7.40;6.70;;;6.30;99.90;;;;;;5045673;28;20186;-68
2020/12/13 02:40:00;;;;;;;7.13;6.43;;;6.30;99.90;;;;;;5039343;28;20222;-69
2020/12/13 02:42:27;;;;;;;7.97;7.27;;;6.30;99.90;;;;;;5041934;28;20203;-67
2020/12/13 02:44:53;;;;;;;7.97;7.27;;;6.30;99.90;;;;;;5042361;28;20180;-67
2020/12/13 02:47:18;;;;;;;6.87;6.30;;;6.30;99.90;;;;;;5045540;28;20215;-68
2020/12/13 02:49:44;;;;;;;7.00;6.40;;;6.30;99.90;;;;;;5037087;28;20648;-69
2020/12/13 02:52:10;;;;;;;7.70;7.03;;;6.30;99.90;;;;;;5044244;28;20673;-68
2020/12/13 02:54:37;;;;;;;7.80;7.00;;;6.30;99.90;;;;;;5042438;28;20192;-67
2020/12/13 02:57:03;;;;;;;7.20;6.60;;;6.30;99.90;;;;;;5053492;28;20666;-67
2020/12/13 02:59:29;;;;;;;8.30;7.53;;;6.40;99.90;;;;;;5041139;28;20185;-69
2020/12/13 03:01:55;;;;;;;7.30;6.60;;;6.30;99.90;;;;;;5041052;28;20239;-68
2020/12/13 03:04:20;;;;;;;7.07;6.57;;;6.30;99.90;;;;;;5041002;28;20659;-68
2020/12/13 03:06:46;;;;;;;7.70;6.90;;;6.40;99.90;;;;;;5036185;28;20180;-68
2020/12/13 03:09:12;;;;;;;7.10;6.50;;;6.40;99.90;;;;;;5035257;28;20186;-67
2020/12/13 03:11:37;;;;;;;8.40;6.97;;;6.30;99.90;;;;;;5040256;28;20214;-67
2020/12/13 03:14:03;;;;;;;7.90;7.20;;;6.30;99.90;;;;;;5046227;28;20572;-68
2020/12/13 03:16:28;;;;;;;7.23;6.63;;;6.30;99.90;;;;;;5034443;28;20667;-68
2020/12/13 03:18:54;;;;;;;8.23;7.43;;;6.30;99.90;;;;;;5038580;28;20212;-68
2020/12/13 03:21:20;;;;;;;8.13;7.20;;;6.30;99.90;;;;;;5038577;28;20309;-68
2020/12/13 03:23:45;;;;;;;8.50;7.40;;;6.30;99.90;;;;;;5043216;28;20281;-68
2020/12/13 03:26:11;;;;;;;7.50;6.80;;;6.30;99.90;;;;;;5042778;28;20663;-68
2020/12/13 03:28:37;;;;;;;8.10;7.30;;;6.40;99.90;;;;;;5042815;28;20205;-68
2020/12/13 03:31:02;;;;;;;7.37;6.77;;;6.40;99.90;;;;;;5037117;28;20217;-67
2020/12/13 03:33:28;;;;;;;6.90;6.30;;;6.40;99.90;;;;;;5044202;28;20264;-68
2020/12/13 03:35:53;;;;;;;8.40;7.70;;;6.50;99.90;;;;;;5037286;28;20647;-67
2020/12/13 03:38:19;;;;;;;8.23;7.47;;;6.50;99.90;;;;;;5034234;28;20196;-67
2020/12/13 03:40:45;;;;;;;7.40;6.80;;;6.50;99.90;;;;;;5037777;28;20303;-67
2020/12/13 03:43:10;;;;;;;7.90;7.30;;;6.50;99.90;;;;;;5041221;28;20267;-67
2020/12/13 03:45:36;;;;;;;7.87;6.43;;;6.50;99.90;;;;;;5040683;28;20222;-67
2020/12/13 03:48:02;;;;;;;7.57;6.97;;;6.60;99.90;;;;;;5033425;28;20211;-68
2020/12/13 03:50:38;;;;;;;7.77;7.07;;;6.60;99.90;;;;;;5037322;28;20207;-67
2020/12/13 03:53:08;;;;;;;7.37;6.67;;;6.50;99.90;;;;;;5026058;28;20646;-67
2020/12/13 03:55:33;;;;;;;7.00;6.40;;;6.50;99.90;;;;;;5040695;28;20226;-67
2020/12/13 03:57:59;;;;;;;7.13;6.40;;;6.50;99.90;;;;;;5048485;28;20603;-67
2020/12/13 04:00:27;;;;;;;7.40;6.70;;;6.60;99.90;;;;;;5046192;28;20760;-68
2020/12/13 04:02:53;;;;;;;7.03;6.43;;;6.60;99.90;;;;;;5039182;28;20184;-67
2020/12/13 04:05:19;;;;;;;6.97;6.37;;;6.60;99.90;;;;;;5038397;28;20180;-67
2020/12/13 04:07:45;;;;;;;6.93;6.23;;;6.50;99.90;;;;;;5036523;28;20211;-67
2020/12/13 04:10:11;;;;;;;6.43;5.83;;;6.60;99.90;;;;;;5040766;28;20243;-67
2020/12/13 04:12:36;;;;;;;7.73;7.03;;;6.50;99.90;;;;;;5037604;28;20187;-67
2020/12/13 04:15:02;;;;;;;7.60;6.80;;;6.50;99.90;;;;;;5034482;28;20647;-68
2020/12/13 04:17:27;;;;;;;7.53;6.93;;;6.50;99.90;;;;;;5044017;28;20193;-67
2020/12/13 04:19:53;;;;;;;7.87;7.17;;;6.40;99.90;;;;;;5040068;28;20222;-67
2020/12/13 04:22:18;;;;;;;7.30;6.50;;;6.40;99.90;;;;;;5039721;28;20275;-68
2020/12/13 04:24:44;;;;;;;7.30;6.70;;;6.40;99.90;;;;;;5038302;28;20199;-67
2020/12/13 04:27:10;;;;;;;7.33;6.70;;;6.40;99.90;;;;;;5042959;28;20205;-67
2020/12/13 04:29:35;;;;;;;7.57;6.90;;;6.30;99.90;;;;;;5033583;28;20201;-67
2020/12/13 04:32:01;;;;;;;7.33;6.73;;;6.30;99.90;;;;;;5042513;28;20679;-68
2020/12/13 04:34:26;;;;;;;6.87;6.37;;;6.30;99.90;;;;;;5048237;28;20188;-68
2020/12/13 04:36:52;;;;;;;6.97;6.37;;;6.40;99.90;;;;;;5038877;28;20184;-68
2020/12/13 04:39:18;;;;;;;7.43;6.67;;;6.40;99.90;;;;;;5041533;28;20210;-67
2020/12/13 04:41:43;;;;;;;6.00;5.50;;;6.40;99.90;;;;;;5041511;28;20195;-68
2020/12/13 04:44:09;;;;;;;6.80;6.20;;;6.50;99.90;;;;;;5044875;28;20192;-67
2020/12/13 04:46:39;;;;;;;6.03;5.53;;;6.50;99.90;;;;;;5043037;28;20266;-67
2020/12/13 04:49:05;;;;;;;6.70;6.05;;;6.50;99.90;;;;;;5040898;28;21009;-68
2020/12/13 04:51:33;;;;;;;5.43;5.03;;;6.50;99.90;;;;;;5038723;28;20206;-68
2020/12/13 04:54:05;;;;;;;6.07;5.57;;;6.50;99.90;;;;;;5041435;28;20183;-68
2020/12/13 04:56:33;;;;;;;5.53;5.03;;;6.50;99.90;;;;;;5042347;28;20175;-68
2020/12/13 04:59:02;;;;;;;5.93;5.33;;;6.50;99.90;;;;;;5038496;28;20678;-68
2020/12/13 05:01:27;;;;;;;5.70;5.17;;;6.50;99.90;;;;;;5041357;28;20211;-68
2020/12/13 05:03:53;;;;;;;5.23;4.73;;;6.50;99.90;;;;;;5044809;28;20860;-68
2020/12/13 05:06:19;;;;;;;5.93;5.37;;;6.50;99.90;;;;;;5038293;28;20187;-68
2020/12/13 05:08:47;;;;;;;6.53;5.17;;;6.60;99.90;;;;;;5037571;28;20184;-68
2020/12/13 05:11:13;;;;;;;4.97;4.57;;;6.60;99.90;;;;;;5041551;28;20197;-68
2020/12/13 05:13:39;;;;;;;4.70;4.30;;;6.60;99.90;;;;;;5042800;28;20678;-68
2020/12/13 05:16:11;;;;;;;4.73;4.33;;;6.60;99.90;;;;;;5033629;28;20274;-68
2020/12/13 05:18:41;;;;;;;4.90;4.50;;;6.70;99.90;;;;;;5035287;28;20276;-68
2020/12/13 05:21:07;;;;;;;4.63;4.27;;;6.70;99.90;;;;;;5035006;28;20691;-68
2020/12/13 05:23:33;;;;;;;4.40;4.00;;;6.60;99.90;;;;;;5023486;28;20195;-68
2020/12/13 05:25:59;;;;;;;4.07;3.77;;;6.60;99.90;;;;;;5039488;28;20214;-68
2020/12/13 05:28:25;;;;;;;4.50;4.03;;;6.60;99.90;;;;;;5035674;28;20544;-68
2020/12/13 05:30:52;;;;;;;4.27;3.97;;;6.60;99.90;;;;;;5036764;28;20204;-69
2020/12/13 05:36:11;;;;;;;4.40;4.00;;;6.70;99.90;;;;;;5043620;28;20183;-69
2020/12/13 05:38:39;;;;;;;6.60;4.20;;;6.70;99.90;;;;;;5035676;28;20190;-68
2020/12/13 05:41:06;;;;;;;4.33;3.93;;;6.60;99.90;;;;;;5035692;28;20302;-69
2020/12/13 05:43:36;;;;;;;5.43;4.50;;;6.60;99.90;;;;;;5032734;28;20178;-67
2020/12/13 05:53:24;;;;;;;4.20;3.90;;;6.60;99.90;;;;;;5038626;28;20183;-68
2020/12/13 05:55:56;;;;;;;4.00;3.70;;;6.60;99.90;;;;;;5038306;28;20195;-69
2020/12/13 05:58:24;;;;;;;4.20;3.90;;;6.60;99.90;;;;;;5039516;28;20209;-68
2020/12/13 06:00:51;;;;;;;4.27;3.97;;;6.50;99.90;;;;;;5042769;28;20210;-69
2020/12/13 06:03:42;;;;;;;4.30;3.90;;;6.50;99.90;;;;;;5046364;28;20201;-67
2020/12/13 06:06:10;;;;;;;4.20;3.80;;;6.50;99.90;;;;;;5038260;28;20197;-69
2020/12/13 06:08:56;;;;;;;4.57;4.10;;;6.50;99.90;;;;;;5041299;28;20246;-69
2020/12/13 06:11:22;;;;;;;4.50;4.10;;;6.50;99.90;;;;;;5040754;28;20240;-69
2020/12/13 06:13:53;;;;;;;4.13;3.80;;;6.50;99.90;;;;;;5047844;28;20183;-69
2020/12/13 06:16:20;;;;;;;4.60;4.20;;;6.50;99.90;;;;;;5041419;28;20175;-68
2020/12/13 06:18:46;;;;;;;4.17;3.77;;;6.60;99.90;;;;;;5043015;28;20721;-68
2020/12/13 06:21:14;;;;;;;4.27;3.87;;;6.60;99.90;;;;;;5040818;28;20293;-68
2020/12/13 06:23:45;;;;;;;3.80;3.50;;;6.50;99.90;;;;;;5045305;28;20187;-68
2020/12/13 06:26:10;;;;;;;4.37;4.07;;;6.60;99.90;;;;;;5039014;28;20575;-69
2020/12/13 06:28:36;;;;;;;4.17;3.80;;;6.60;99.90;;;;;;5043163;28;20176;-68
2020/12/13 06:31:04;;;;;;;4.20;3.90;;;6.60;99.90;;;;;;5041541;28;20204;-68
2020/12/13 06:33:40;;;;;;;5.83;3.23;;;6.60;99.90;;;;;;5044661;28;20209;-68
2020/12/13 06:36:06;;;;;;;3.90;3.10;;;6.60;99.90;;;;;;5040310;28;20188;-68
2020/12/13 06:38:34;;;;;;;3.40;3.20;;;6.60;99.90;;;;;;5039799;28;20659;-68
2020/12/13 06:41:26;;;;;;;3.73;3.43;;;6.70;99.90;;;;;;5036643;28;20219;-68
2020/12/13 06:43:56;;;;;;;3.37;3.07;;;6.70;99.90;;;;;;5037376;28;20192;-68
2020/12/13 06:46:25;;;;;;;3.63;3.33;;;6.70;99.90;;;;;;5046021;28;20183;-68
2020/12/13 06:48:51;;;;;;;4.47;3.60;;;6.70;99.90;;;;;;5048651;28;20595;-70
2020/12/13 06:51:19;;;;;;;3.57;3.27;;;6.70;99.90;;;;;;5040908;28;20199;-68
2020/12/13 06:53:49;;;;;;;4.67;3.53;;;6.70;99.90;;;;;;5043555;28;20191;-67
2020/12/13 06:56:16;;;;;;;4.80;4.40;;;6.60;99.90;;;;;;5046442;28;20215;-68
2020/12/13 06:58:44;;;;;;;3.77;3.47;;;6.60;99.90;;;;;;5042602;28;20843;-69
2020/12/13 07:01:20;;;;;;;3.80;3.40;;;6.60;99.90;;;;;;5043744;28;20210;-69
2020/12/13 07:03:46;;;;;;;3.30;2.97;;;6.70;99.90;;;;;;5047836;28;20272;-69
2020/12/13 07:06:46;;;;;;;3.00;2.80;;;6.70;99.90;;;;;;5040050;28;20177;-69
2020/12/13 07:09:07;;;;;;;3.23;2.70;;;6.70;99.90;;;;;;5042681;28;20275;-69
2020/12/13 07:11:33;;;;;;;4.03;3.10;;;6.70;99.90;;;;;;5045235;28;20286;-69
2020/12/13 07:14:12;;;;;;;3.43;3.13;;;6.70;99.90;;;;;;5040452;28;20179;-69
2020/12/13 07:16:43;;;;;;;3.50;3.20;;;6.70;99.90;;;;;;5038512;28;20227;-69
2020/12/13 07:19:11;;;;;;;3.80;3.50;;;6.80;99.90;;;;;;5025473;28;20189;-69
2020/12/13 07:21:38;;;;;;;3.67;3.37;;;6.80;99.90;;;;;;5040743;28;20203;-68
2020/12/13 07:24:06;;;;;;;4.73;4.33;;;6.70;99.90;;;;;;5046724;28;20178;-69
2020/12/13 07:26:33;;;;;;;3.77;3.43;;;6.70;99.90;;;;;;5040606;28;20183;-69
2020/12/13 07:29:02;;;;;;;3.70;2.97;;;6.70;99.90;;;;;;5043714;28;20178;-69
2020/12/13 07:31:38;;;;;;;3.10;2.90;;;6.70;99.90;;;;;;5037431;28;20772;-69
2020/12/13 07:34:06;;;;;;;3.10;2.90;;;6.70;99.90;;;;;;5041742;28;20182;-68
2020/12/13 07:36:33;;;;;;;3.30;3.00;;;6.70;99.90;;;;;;5042617;28;20259;-70
2020/12/13 07:39:01;;;;;;;3.03;2.83;;;6.80;99.90;;;;;;5041301;28;20194;-68
2020/12/13 07:41:27;;;;;;;3.17;2.97;;;6.80;99.90;;;;;;5038836;28;20227;-68
2020/12/13 07:44:01;;;;;;;3.43;3.10;;;6.70;99.90;;;;;;5039219;28;20191;-69
2020/12/13 07:46:30;;;;;;;4.00;3.33;;;6.70;99.90;;;;;;5035568;28;20179;-69
2020/12/13 07:49:09;;;;;;;5.10;3.27;;;6.70;99.90;;;;;;5037491;28;20229;-69
2020/12/13 07:51:40;;;;;;;3.60;3.30;;;6.70;99.90;;;;;;5042594;28;20205;-69
2020/12/13 07:54:26;;;;;;;3.70;3.50;;;6.70;99.90;;;;;;5034524;28;20181;-69
2020/12/13 07:56:57;;;;;;;3.93;3.63;;;6.70;99.90;;;;;;5043995;28;20175;-69
2020/12/13 07:59:24;;;;;;;3.97;3.67;;;6.70;99.90;;;;;;5041511;28;20190;-70
2020/12/13 08:01:55;;;;;;;3.80;3.60;;;6.80;99.90;;;;;;5039278;28;20208;-69
2020/12/13 08:04:34;;;;;;;4.57;3.77;;;6.80;99.90;;;;;;5044368;28;20178;-69
2020/12/13 08:07:00;;;;;;;4.43;4.13;;;6.80;99.90;;;;;;5037588;28;20655;-69
2020/12/13 08:09:26;;;;;;;4.90;4.37;;;6.80;99.90;;;;;;5043802;28;20192;-69
2020/12/13 08:11:53;;;;;;;4.70;4.30;;;6.80;99.90;;;;;;5039147;28;20767;-69
2020/12/13 08:14:25;;;;;;;4.33;3.90;;;6.80;99.90;;;;;;5043040;28;20197;-69
2020/12/13 08:16:55;;;;;;;4.50;4.10;;;6.90;99.90;;;;;;5040183;28;20215;-69
2020/12/13 08:19:35;;;;;;;5.67;5.10;;;6.90;99.90;;;;;;5042162;28;20182;-69
2020/12/13 08:22:20;;;;;;;4.93;4.53;;;6.90;99.90;;;;;;5041596;28;20270;-68
2020/12/13 08:25:15;;;;;;;4.80;4.30;;;7.00;99.90;;;;;;5041539;28;20623;-68
2020/12/13 08:27:42;;;;;;;4.77;4.37;;;7.00;99.90;;;;;;4982067;28;20311;-69
2020/12/13 08:30:08;;;;;;;5.07;4.60;;;7.10;99.90;;;;;;4976695;28;20210;-69
2020/12/13 08:32:36;;;;;;;7.83;4.80;;;7.10;99.90;;;;;;4982849;28;20207;-69
2020/12/13 08:35:09;;;;;;;4.73;4.37;;;7.10;99.90;;;;;;4972158;28;20189;-69
2020/12/13 08:37:35;;;;;;;5.47;4.97;;;7.10;99.90;;;;;;4959710;28;20216;-69
2020/12/13 08:40:01;;;;;;;5.67;5.00;;;7.20;99.90;;;;;;4976457;28;20310;-69
2020/12/13 08:42:26;;;;;;;5.20;4.80;;;7.20;99.90;;;;;;4979471;28;20190;-69
2020/12/13 08:44:52;;;;;;;5.23;4.80;;;7.20;99.90;;;;;;4987039;28;20238;-68
2020/12/13 08:47:19;;;;;;;5.70;5.10;;;7.20;99.90;;;;;;4983389;28;20214;-69
2020/12/13 08:49:48;;;;;;;4.87;4.47;;;7.20;99.90;;;;;;4984400;28;20190;-68
2020/12/13 08:52:20;;;;;;;4.53;4.20;;;7.30;99.90;;;;;;4985295;28;20192;-71
2020/12/13 08:54:54;;;;;;;4.70;4.30;;;7.30;99.90;;;;;;4972194;28;20616;-68
2020/12/13 08:57:36;;;;;;;4.90;4.40;;;7.30;99.70;;;;;;4978836;28;20201;-69
2020/12/13 09:00:06;;;;;;;5.43;4.93;;;7.40;99.80;;;;;;4977817;28;20236;-69
2020/12/13 09:02:32;;;;;;;4.47;4.03;;;7.40;99.20;;;;;;4964361;28;20221;-68
2020/12/13 09:04:58;;;;;;;4.53;3.93;;;7.50;99.30;;;;;;5029495;28;20705;-70
2020/12/13 09:07:34;;;;;;;4.90;4.40;;;7.50;99.00;;;;;;5049737;28;20238;-69
2020/12/13 09:10:09;;;;;;;5.27;4.30;;;7.60;98.20;;;;;;5040174;28;20196;-69
2020/12/13 09:12:36;;;;;;;4.60;4.23;;;7.70;98.10;;;;;;5044740;28;20183;-69
2020/12/13 09:15:16;;;;;;;5.87;4.20;;;7.70;97.80;;;;;;5041049;28;20183;-69
2020/12/13 09:17:51;;;;;;;4.00;3.70;;;7.70;97.90;;;;;;5039589;28;20692;-69
2020/12/13 09:20:25;;;;;;;5.00;3.93;;;7.70;97.70;;;;;;5043074;28;20196;-69
2020/12/13 09:23:07;;;;;;;3.77;3.33;;;7.70;97.50;;;;;;5045424;28;20248;-69
2020/12/13 09:25:53;;;;;;;4.07;3.77;;;7.70;97.50;;;;;;5045091;28;20175;-69
2020/12/13 09:28:18;;;;;;;7.37;4.77;;;7.70;97.80;;;;;;5034354;28;20176;-68
2020/12/13 09:30:44;;;;;;;6.30;4.37;;;7.80;97.60;;;;;;5045679;28;20294;-68
2020/12/13 09:33:12;;;;;;;5.03;4.23;;;7.80;97.30;;;;;;5018144;28;20177;-69
2020/12/13 09:35:38;;;;;;;5.73;4.50;;;7.80;97.40;;;;;;5038674;28;20560;-68
2020/12/13 09:38:06;;;;;;;4.67;4.27;;;7.80;97.20;;;;;;5033794;28;20180;-70
2020/12/13 09:40:32;;;;;;;4.80;3.60;;;7.90;97.20;;;;;;5043482;28;20262;-70
2020/12/13 09:42:58;;;;;;;4.97;4.57;;;8.00;96.80;;;;;;5031823;28;20218;-70
2020/12/13 09:45:25;;;;;;;4.40;4.00;;;8.10;96.60;;;;;;5044173;28;20708;-69
2020/12/13 09:47:56;;;;;;;4.93;4.07;;;8.20;96.80;;;;;;5037009;28;20172;-71
2020/12/13 09:50:23;;;;;;;4.03;3.63;;;8.20;96.30;;;;;;5044355;28;20204;-71
2020/12/13 09:52:49;;;;;;;4.03;3.60;;;8.40;96.20;;;;;;5038116;28;20180;-69
2020/12/13 09:55:14;;;;;;;3.43;3.23;;;8.50;95.60;;;;;;5042357;28;20196;-69
2020/12/13 09:57:40;;;;;;;4.27;3.87;;;8.60;94.80;;;;;;5038665;28;20274;-70
2020/12/13 10:00:06;;;;;;;4.03;3.70;;;8.60;95.20;;;;;;5043109;28;20219;-68
2020/12/13 10:02:32;;;;;;;5.20;4.30;;;8.70;94.80;;;;;;5038600;28;20670;-69
2020/12/13 10:04:58;;;;;;;3.30;3.10;;;8.90;94.80;;;;;;5042244;28;20187;-69
2020/12/13 10:09:49;;;;;;;4.70;4.27;;;9.20;92.80;;;;;;5039555;28;20192;-70
2020/12/13 10:12:15;;;;;;;4.03;3.73;;;9.50;92.30;;;;;;5035802;28;20263;-70
2020/12/13 10:14:40;;;;;;;4.33;3.93;;;10.00;91.40;;;;;;5037383;28;20183;-70
2020/12/13 10:17:07;;;;;;;4.43;4.13;;;10.30;90.30;;;;;;5038104;28;20548;-70
2020/12/13 10:19:33;;;;;;;3.73;3.40;;;10.60;90.00;;;;;;5034954;28;20615;-70
2020/12/13 10:21:59;;;;;;;2.78;2.58;;;10.70;88.50;;;;;;5038303;28;20180;-69
2020/12/13 10:24:24;;;;;;;3.15;2.85;;;10.70;87.70;;;;;;5040577;28;20179;-71
2020/12/13 10:26:50;;;;;;;3.90;3.58;;;10.50;88.30;;;;;;5044064;28;20213;-69
2020/12/13 10:29:15;;;;;;;3.63;3.33;;;10.50;89.40;;;;;;5043809;28;20180;-70
2020/12/13 10:31:42;;;;;;;4.90;4.30;;;10.60;88.00;;;;;;5046539;28;20821;-69
2020/12/13 10:34:09;;;;;;;6.50;5.80;;;10.70;87.60;;;;;;5045000;28;20270;-68
2020/12/13 10:36:36;;;;;;;4.13;3.75;;;10.90;86.40;;;;;;5042157;28;20184;-68
2020/12/13 10:39:04;;;;;;;5.30;4.28;;;11.20;82.40;;;;;;5045988;28;20692;-68
2020/12/13 10:41:31;;;;;;;6.00;5.55;;;11.50;79.60;;;;;;5043245;28;20589;-69
2020/12/13 10:43:57;;;;;;;5.43;4.93;;;12.30;76.40;;;;;;5048818;28;20258;-69
2020/12/13 10:46:22;;;;;;;6.25;5.65;;;13.80;66.20;;;;;;5037698;28;20212;-69
2020/12/13 10:48:48;;;;;;;8.88;7.97;;;15.20;59.60;;;;;;5040628;28;20207;-70
2020/12/13 10:51:15;;;;;;;6.25;5.65;;;15.40;56.50;;;;;;5040644;28;20208;-70
2020/12/13 10:53:41;;;;;;;9.25;7.75;;;14.80;56.20;;;;;;5044076;28;20187;-70
2020/12/13 10:56:07;;;;;;;11.50;10.32;;;13.80;59.50;;;;;;5037638;28;20187;-70
2020/12/13 10:58:33;;;;;;;6.28;5.30;;;13.00;62.30;;;;;;5045292;28;20192;-69
2020/12/13 11:01:01;;;;;;;3.72;3.42;;;12.10;67.20;;;;;;5037836;28;20234;-69
2020/12/13 11:03:28;;;;;;;4.10;3.70;;;11.60;68.60;;;;;;5043047;28;20183;-69
2020/12/13 11:05:53;;;;;;;4.30;3.83;;;10.90;72.30;;;;;;5041442;28;20184;-70
2020/12/13 11:08:19;;;;;;;7.47;5.50;;;10.60;76.10;;;;;;5038821;28;20548;-69
2020/12/13 11:10:48;;;;;;;8.70;6.82;;;10.20;79.00;;;;;;5041299;28;20212;-70
2020/12/13 11:13:14;;;;;;;7.70;4.65;;;10.10;81.20;;;;;;5042482;28;20208;-69
2020/12/13 11:15:42;;;;;;;7.88;6.55;;;9.90;83.60;;;;;;5044340;28;20184;-69
2020/12/13 11:18:08;;;;;;;9.15;6.65;;;9.90;84.00;;;;;;5036313;28;20656;-70
2020/12/13 11:20:33;;;;;;;8.65;7.43;;;9.80;86.00;;;;;;5040853;28;20219;-69
2020/12/13 11:22:59;;;;;;;10.50;8.88;;;9.80;86.60;;;;;;5041538;28;20176;-69
2020/12/13 11:25:24;;;;;;;10.20;7.80;;;9.80;86.30;;;;;;5044117;28;20655;-69
2020/12/13 11:27:50;;;;;;;9.20;7.30;;;9.70;87.20;;;;;;5039176;28;20287;-70
2020/12/13 11:30:16;;;;;;;9.27;7.83;;;9.60;89.10;;;;;;5039828;28;20215;-69
2020/12/13 11:32:44;;;;;;;13.80;9.93;;;9.50;89.90;;;;;;5042901;28;20184;-70
2020/12/13 11:35:10;;;;;;;12.67;10.13;;;9.40;90.00;;;;;;5043076;28;20186;-70
2020/12/13 11:37:36;;;;;;;9.57;7.27;;;9.40;90.00;;;;;;5034613;28;20176;-68
2020/12/13 11:40:02;;;;;;;11.40;8.37;;;9.30;90.40;;;;;;5040018;28;20289;-70
2020/12/13 11:42:28;;;;;;;11.80;8.73;;;9.20;90.60;;;;;;5042107;28;20191;-68
2020/12/13 11:44:53;;;;;;;14.63;9.27;;;9.10;91.30;;;;;;5045131;28;20270;-69
2020/12/13 11:47:19;;;;;;;5.47;4.30;;;9.00;91.50;;;;;;5047385;28;20200;-69
2020/12/13 11:49:44;;;;;;;7.17;5.33;;;8.90;91.30;;;;;;5038220;28;20559;-70
2020/12/13 11:52:10;;;;;;;10.77;7.33;;;8.80;92.00;;;;;;5041258;28;20265;-68
2020/12/13 11:54:36;;;;;;;5.67;4.73;;;8.80;92.40;;;;;;5045173;28;20180;-70
2020/12/13 11:57:02;;;;;;;8.30;6.67;;;8.70;92.50;;;;;;5044843;28;20175;-69
2020/12/13 11:59:28;;;;;;;8.63;7.73;;;8.70;92.90;;;;;;5043369;28;20196;-69
2020/12/13 12:01:55;;;;;;;9.33;7.40;;;8.70;93.10;;;;;;5046913;28;20730;-70
2020/12/13 12:04:21;;;;;;;11.37;9.67;;;8.70;93.50;;;;;;5038877;28;20207;-70
2020/12/13 12:06:48;;;;;;;10.03;7.90;;;8.80;93.80;;;;;;5048553;28;20180;-70
2020/12/13 12:09:14;;;;;;;12.77;9.97;;;8.80;93.40;;;;;;5041095;28;20212;-71
2020/12/13 12:11:40;;;;;;;10.33;8.57;;;8.90;93.30;;;;;;5044451;28;20203;-70
2020/12/13 12:14:10;;;;;;;5.23;4.73;;;8.90;93.60;;;;;;5044571;28;20184;-68
2020/12/13 12:16:36;;;;;;;6.73;5.40;;;8.90;92.80;;;;;;5053309;28;20192;-70
2020/12/13 12:19:02;;;;;;;14.27;12.30;;;8.90;92.50;;;;;;5041652;28;20384;-70
2020/12/13 12:21:29;;;;;;;10.90;9.63;;;8.90;93.00;;;;;;5031691;28;20282;-69
2020/12/13 12:23:55;;;;;;;5.00;4.47;;;8.90;93.10;;;;;;5049406;28;20180;-69
2020/12/13 12:26:20;;;;;;;4.20;3.87;;;8.90;92.50;;;;;;5047585;28;20180;-70
2020/12/13 12:28:47;;;;;;;7.77;6.77;;;8.90;92.30;;;;;;5046757;28;20188;-69
2020/12/13 12:31:20;;;;;;;4.47;4.07;;;8.90;93.20;;;;;;5044724;28;20212;-71
2020/12/13 12:33:47;;;;;;;5.80;3.90;;;8.90;92.50;;;;;;5044851;28;20188;-68
2020/12/13 12:36:15;;;;;;;5.10;4.67;;;8.80;92.70;;;;;;5052222;28;20188;-69
2020/12/13 12:38:40;;;;;;;6.73;4.07;;;8.70;93.20;;;;;;5044279;28;20227;-70
2020/12/13 12:41:09;;;;;;;4.90;4.50;;;8.60;93.60;;;;;;5045750;28;20212;-70
2020/12/13 12:43:35;;;;;;;5.90;5.30;;;8.60;94.10;;;;;;5050270;28;20275;-69
2020/12/13 12:46:02;;;;;;;5.30;4.43;;;8.60;94.70;;;;;;5047137;28;20212;-70
2020/12/13 12:48:28;;;;;;;6.73;6.07;;;8.60;94.80;;;;;;5044366;28;20611;-70
2020/12/13 12:50:53;;;;;;;11.80;10.77;;;8.70;94.60;;;;;;5042353;28;20211;-70
2020/12/13 12:53:19;;;;;;;17.77;15.97;;;8.80;94.50;;;;;;5056212;28;20203;-70
2020/12/13 12:55:45;;;;;;;15.63;13.90;;;8.90;94.20;;;;;;5026629;28;20681;-69
2020/12/13 12:58:11;;;;;;;10.00;9.00;;;9.00;93.90;;;;;;5045521;28;20717;-69
2020/12/13 13:03:03;;;;;;;8.50;7.90;;;9.20;93.60;;;;;;5040222;28;20180;-67
2020/12/13 13:05:40;;;;;;;6.93;6.33;;;9.10;93.10;;;;;;5026704;28;20172;-70
2020/12/13 13:08:14;;;;;;;10.60;9.70;;;9.20;93.70;;;;;;5029416;28;20207;-71
2020/12/13 13:10:41;;;;;;;11.03;10.03;;;9.20;93.50;;;;;;5046727;28;20685;-70
2020/12/13 13:13:07;;;;;;;8.20;7.43;;;9.10;93.60;;;;;;5037494;28;20198;-69
2020/12/13 13:18:37;;;;;;;6.20;5.70;;;9.00;93.80;;;;;;4969187;28;20186;-69